KCOF/COF METAR and TAF weather

Enter ICAO airport designator
Station Type Date Time Source
KCOF METAR 2019/06/26 21:56 UTC NOAA

KCOF 262156Z AUTO 04010KT 10SM CLR 29/28 A3006 RMK AO2 SLP184 T02940275 $


Station Type Date Time Source
KCOF Decoded METAR 2019/06/26 21:56 UTC NOAA

Cocoa / Patrick Air Force Base, FL, United States (KCOF) 28-14N 080-36W 3M
Jun 26, 2019 - 05:56 PM EDT / 2019.06.26 2156 UTC
Wind: from the NE (040 degrees) at 12 MPH (10 KT):0
Visibility: 10 mile(s):0
Sky conditions: clear
Temperature: 84.9 F (29.4 C)
Dew Point: 81.5 F (27.5 C)
Relative Humidity: 89%
Pressure (altimeter): 30.06 in. Hg (1017 hPa)
ob: KCOF 262156Z AUTO 04010KT 10SM CLR 29/28 A3006 RMK AO2 SLP184 T02940275
cycle: 22

Station Type Date Time Source
KCOF TAF 2019/06/26 18:06 UTC NOAA

TAF KCOF 261800Z 2618/2724 06008KT 9999 SCT030 SCT200 QNH3005INS
BECMG 2703/2704 VRB04KT 9999 FEW030 FEW200 QNH3007INS
BECMG 2714/2715 06008KT 9999 FEW040 QNH3009INS TX31/2716Z TN26/2708Z

Example: see airport list